sensor_id;sensor_type;location;lat;lon;timestamp;temperature;humidity
75442;DHT22;64019;48.312;14.226;2023-02-07T00:01:17;-3.70;99.90
75442;DHT22;64019;48.312;14.226;2023-02-07T00:03:44;-3.70;99.90
75442;DHT22;64019;48.312;14.226;2023-02-07T00:06:15;-3.70;99.90
75442;DHT22;64019;48.312;14.226;2023-02-07T00:08:41;-3.70;99.90
75442;DHT22;64019;48.312;14.226;2023-02-07T00:11:10;-3.70;99.90
75442;DHT22;64019;48.312;14.226;2023-02-07T00:13:37;-3.70;99.90
75442;DHT22;64019;48.312;14.226;2023-02-07T00:16:04;-3.80;99.90
75442;DHT22;64019;48.312;14.226;2023-02-07T00:18:31;-3.90;99.90
75442;DHT22;64019;48.312;14.226;2023-02-07T00:21:06;-3.90;99.90
75442;DHT22;64019;48.312;14.226;2023-02-07T00:23:33;-3.90;99.90
75442;DHT22;64019;48.312;14.226;2023-02-07T00:25:59;-3.90;99.90
75442;DHT22;64019;48.312;14.226;2023-02-07T00:28:25;-3.90;99.90
75442;DHT22;64019;48.312;14.226;2023-02-07T00:31:11;-3.90;99.90
75442;DHT22;64019;48.312;14.226;2023-02-07T00:33:38;-3.90;99.90
75442;DHT22;64019;48.312;14.226;2023-02-07T00:36:06;-3.90;99.90
75442;DHT22;64019;48.312;14.226;2023-02-07T00:38:32;-3.90;99.90
75442;DHT22;64019;48.312;14.226;2023-02-07T00:40:58;-4.00;99.90
75442;DHT22;64019;48.312;14.226;2023-02-07T00:43:26;-4.00;99.90
75442;DHT22;64019;48.312;14.226;2023-02-07T00:45:52;-4.10;99.90
75442;DHT22;64019;48.312;14.226;2023-02-07T00:48:17;-4.10;99.90
75442;DHT22;64019;48.312;14.226;2023-02-07T00:50:43;-4.10;99.90
75442;DHT22;64019;48.312;14.226;2023-02-07T00:53:08;-4.10;99.90
75442;DHT22;64019;48.312;14.226;2023-02-07T00:55:34;-4.10;99.90
75442;DHT22;64019;48.312;14.226;2023-02-07T00:58:05;-4.10;99.90
75442;DHT22;64019;48.312;14.226;2023-02-07T01:01:03;-4.10;99.90
75442;DHT22;64019;48.312;14.226;2023-02-07T01:03:41;-4.20;99.90
75442;DHT22;64019;48.312;14.226;2023-02-07T01:09:46;-4.20;99.90
75442;DHT22;64019;48.312;14.226;2023-02-07T01:26:08;-4.20;99.90
75442;DHT22;64019;48.312;14.226;2023-02-07T01:29:19;-4.20;99.90
75442;DHT22;64019;48.312;14.226;2023-02-07T01:33:12;-4.30;99.90
75442;DHT22;64019;48.312;14.226;2023-02-07T01:42:59;-4.40;99.90
75442;DHT22;64019;48.312;14.226;2023-02-07T03:17:54;-3.70;99.90
75442;DHT22;64019;48.312;14.226;2023-02-07T04:09:13;-3.90;99.90
75442;DHT22;64019;48.312;14.226;2023-02-07T04:11:39;-3.90;99.90
75442;DHT22;64019;48.312;14.226;2023-02-07T04:14:04;-4.00;99.90
75442;DHT22;64019;48.312;14.226;2023-02-07T04:16:30;-4.10;99.90
75442;DHT22;64019;48.312;14.226;2023-02-07T04:18:55;-4.10;99.90
75442;DHT22;64019;48.312;14.226;2023-02-07T04:21:21;-4.10;99.90
75442;DHT22;64019;48.312;14.226;2023-02-07T04:23:47;-4.10;99.90
75442;DHT22;64019;48.312;14.226;2023-02-07T04:26:12;-4.10;99.90
75442;DHT22;64019;48.312;14.226;2023-02-07T04:28:38;-4.10;99.90
75442;DHT22;64019;48.312;14.226;2023-02-07T04:31:04;-4.00;99.90
75442;DHT22;64019;48.312;14.226;2023-02-07T04:33:29;-4.10;99.90
75442;DHT22;64019;48.312;14.226;2023-02-07T04:35:56;-4.00;99.90
75442;DHT22;64019;48.312;14.226;2023-02-07T04:38:22;-4.00;99.90
75442;DHT22;64019;48.312;14.226;2023-02-07T04:40:49;-4.00;99.90
75442;DHT22;64019;48.312;14.226;2023-02-07T04:43:14;-4.10;99.90
75442;DHT22;64019;48.312;14.226;2023-02-07T04:45:40;-4.10;99.90
75442;DHT22;64019;48.312;14.226;2023-02-07T04:48:06;-4.10;99.90
75442;DHT22;64019;48.312;14.226;2023-02-07T04:50:31;-4.10;99.90
75442;DHT22;64019;48.312;14.226;2023-02-07T04:52:57;-4.10;99.90
75442;DHT22;64019;48.312;14.226;2023-02-07T04:55:22;-4.30;99.90
75442;DHT22;64019;48.312;14.226;2023-02-07T04:57:48;-4.30;99.90
75442;DHT22;64019;48.312;14.226;2023-02-07T05:00:14;-4.50;99.90
75442;DHT22;64019;48.312;14.226;2023-02-07T05:02:40;-4.60;99.90
75442;DHT22;64019;48.312;14.226;2023-02-07T05:05:06;-4.60;99.90
75442;DHT22;64019;48.312;14.226;2023-02-07T05:07:32;-4.70;99.90
75442;DHT22;64019;48.312;14.226;2023-02-07T05:09:58;-4.70;99.90
75442;DHT22;64019;48.312;14.226;2023-02-07T05:15:51;-4.90;99.90
75442;DHT22;64019;48.312;14.226;2023-02-07T05:18:16;-5.00;99.90
75442;DHT22;64019;48.312;14.226;2023-02-07T05:20:42;-5.00;99.90
75442;DHT22;64019;48.312;14.226;2023-02-07T05:23:08;-5.10;99.90
75442;DHT22;64019;48.312;14.226;2023-02-07T05:25:34;-5.10;99.90
75442;DHT22;64019;48.312;14.226;2023-02-07T05:28:00;-5.10;99.90
75442;DHT22;64019;48.312;14.226;2023-02-07T05:30:25;-5.20;99.90
75442;DHT22;64019;48.312;14.226;2023-02-07T05:32:51;-5.20;99.90
75442;DHT22;64019;48.312;14.226;2023-02-07T05:35:43;-5.10;99.90
75442;DHT22;64019;48.312;14.226;2023-02-07T05:38:12;-5.20;99.90
75442;DHT22;64019;48.312;14.226;2023-02-07T05:40:39;-5.30;99.90
75442;DHT22;64019;48.312;14.226;2023-02-07T05:43:05;-5.30;99.90
75442;DHT22;64019;48.312;14.226;2023-02-07T05:45:31;-5.30;99.90
75442;DHT22;64019;48.312;14.226;2023-02-07T05:47:56;-5.20;99.90
75442;DHT22;64019;48.312;14.226;2023-02-07T05:50:22;-5.30;99.90
75442;DHT22;64019;48.312;14.226;2023-02-07T05:52:48;-5.30;99.90
75442;DHT22;64019;48.312;14.226;2023-02-07T05:55:14;-5.30;99.90
75442;DHT22;64019;48.312;14.226;2023-02-07T05:57:41;-5.20;99.90
75442;DHT22;64019;48.312;14.226;2023-02-07T06:00:12;-5.40;99.90
75442;DHT22;64019;48.312;14.226;2023-02-07T06:02:41;-5.40;99.90
75442;DHT22;64019;48.312;14.226;2023-02-07T06:05:12;-5.50;99.90
75442;DHT22;64019;48.312;14.226;2023-02-07T06:07:37;-5.60;99.90
75442;DHT22;64019;48.312;14.226;2023-02-07T06:10:04;-5.60;99.90
75442;DHT22;64019;48.312;14.226;2023-02-07T06:12:31;-5.70;99.90
75442;DHT22;64019;48.312;14.226;2023-02-07T06:14:57;-5.70;99.90
75442;DHT22;64019;48.312;14.226;2023-02-07T06:17:22;-5.70;99.90
75442;DHT22;64019;48.312;14.226;2023-02-07T06:19:49;-5.70;99.90
75442;DHT22;64019;48.312;14.226;2023-02-07T06:22:15;-5.70;99.90
75442;DHT22;64019;48.312;14.226;2023-02-07T06:24:40;-5.60;99.90
75442;DHT22;64019;48.312;14.226;2023-02-07T06:27:06;-5.60;99.90
75442;DHT22;64019;48.312;14.226;2023-02-07T06:29:32;-5.60;99.90
75442;DHT22;64019;48.312;14.226;2023-02-07T06:31:57;-5.50;99.90
75442;DHT22;64019;48.312;14.226;2023-02-07T06:34:23;-5.50;99.90
75442;DHT22;64019;48.312;14.226;2023-02-07T06:36:49;-5.40;99.90
75442;DHT22;64019;48.312;14.226;2023-02-07T06:39:14;-5.40;99.90
75442;DHT22;64019;48.312;14.226;2023-02-07T06:41:40;-5.40;99.90
75442;DHT22;64019;48.312;14.226;2023-02-07T06:44:06;-5.50;99.90
75442;DHT22;64019;48.312;14.226;2023-02-07T06:46:32;-5.50;99.90
75442;DHT22;64019;48.312;14.226;2023-02-07T06:48:57;-5.40;99.90
75442;DHT22;64019;48.312;14.226;2023-02-07T06:51:23;-5.40;99.90
75442;DHT22;64019;48.312;14.226;2023-02-07T06:53:49;-5.40;99.90
75442;DHT22;64019;48.312;14.226;2023-02-07T06:56:14;-5.40;99.90
75442;DHT22;64019;48.312;14.226;2023-02-07T06:58:40;-5.40;99.90
75442;DHT22;64019;48.312;14.226;2023-02-07T07:01:06;-5.40;99.90
75442;DHT22;64019;48.312;14.226;2023-02-07T07:03:31;-5.40;99.90
75442;DHT22;64019;48.312;14.226;2023-02-07T07:05:58;-5.40;99.90
75442;DHT22;64019;48.312;14.226;2023-02-07T07:08:24;-5.30;99.90
75442;DHT22;64019;48.312;14.226;2023-02-07T07:10:50;-5.20;99.90
75442;DHT22;64019;48.312;14.226;2023-02-07T07:13:16;-5.10;99.90
75442;DHT22;64019;48.312;14.226;2023-02-07T07:15:45;-5.10;99.90
75442;DHT22;64019;48.312;14.226;2023-02-07T07:18:11;-5.00;99.90
75442;DHT22;64019;48.312;14.226;2023-02-07T07:20:36;-4.90;99.90
75442;DHT22;64019;48.312;14.226;2023-02-07T07:23:02;-4.90;99.90
75442;DHT22;64019;48.312;14.226;2023-02-07T07:25:28;-4.90;99.90
75442;DHT22;64019;48.312;14.226;2023-02-07T07:27:53;-4.80;99.90
75442;DHT22;64019;48.312;14.226;2023-02-07T07:30:19;-4.70;99.90
75442;DHT22;64019;48.312;14.226;2023-02-07T07:32:46;-4.70;99.90
75442;DHT22;64019;48.312;14.226;2023-02-07T07:35:11;-4.60;99.90
75442;DHT22;64019;48.312;14.226;2023-02-07T07:37:37;-4.50;99.90
75442;DHT22;64019;48.312;14.226;2023-02-07T07:40:03;-4.50;99.90
75442;DHT22;64019;48.312;14.226;2023-02-07T07:42:29;-4.50;99.90
75442;DHT22;64019;48.312;14.226;2023-02-07T07:44:55;-4.50;99.90
75442;DHT22;64019;48.312;14.226;2023-02-07T07:47:21;-4.40;99.90
75442;DHT22;64019;48.312;14.226;2023-02-07T07:49:46;-4.30;99.90
75442;DHT22;64019;48.312;14.226;2023-02-07T07:52:12;-4.30;99.90
75442;DHT22;64019;48.312;14.226;2023-02-07T07:54:38;-4.10;99.90
75442;DHT22;64019;48.312;14.226;2023-02-07T07:57:04;-4.00;99.90
75442;DHT22;64019;48.312;14.226;2023-02-07T07:59:29;-4.00;99.90
75442;DHT22;64019;48.312;14.226;2023-02-07T08:01:55;-3.90;99.90
75442;DHT22;64019;48.312;14.226;2023-02-07T08:04:20;-3.90;99.90
75442;DHT22;64019;48.312;14.226;2023-02-07T08:06:46;-3.90;99.90
75442;DHT22;64019;48.312;14.226;2023-02-07T08:09:12;-3.80;99.90
75442;DHT22;64019;48.312;14.226;2023-02-07T08:11:38;-3.70;99.90
75442;DHT22;64019;48.312;14.226;2023-02-07T08:14:03;-3.60;99.90
75442;DHT22;64019;48.312;14.226;2023-02-07T08:16:29;-3.60;99.90
75442;DHT22;64019;48.312;14.226;2023-02-07T08:18:55;-3.50;99.90
75442;DHT22;64019;48.312;14.226;2023-02-07T08:21:20;-3.40;99.90
75442;DHT22;64019;48.312;14.226;2023-02-07T08:23:46;-3.40;99.90
75442;DHT22;64019;48.312;14.226;2023-02-07T08:26:12;-3.30;99.90
75442;DHT22;64019;48.312;14.226;2023-02-07T08:28:37;-3.20;99.90
75442;DHT22;64019;48.312;14.226;2023-02-07T08:31:04;-3.20;99.90
75442;DHT22;64019;48.312;14.226;2023-02-07T08:33:30;-3.10;99.90
75442;DHT22;64019;48.312;14.226;2023-02-07T08:35:57;-3.10;99.90
75442;DHT22;64019;48.312;14.226;2023-02-07T08:38:23;-3.00;99.90
75442;DHT22;64019;48.312;14.226;2023-02-07T08:40:49;-2.90;99.90
75442;DHT22;64019;48.312;14.226;2023-02-07T08:43:15;-2.90;99.90
75442;DHT22;64019;48.312;14.226;2023-02-07T08:45:44;-2.80;99.90
75442;DHT22;64019;48.312;14.226;2023-02-07T08:48:10;-2.80;99.90
75442;DHT22;64019;48.312;14.226;2023-02-07T08:50:36;-2.70;99.90
75442;DHT22;64019;48.312;14.226;2023-02-07T08:53:02;-2.70;99.90
75442;DHT22;64019;48.312;14.226;2023-02-07T08:55:27;-2.70;99.90
75442;DHT22;64019;48.312;14.226;2023-02-07T08:57:53;-2.60;99.90
75442;DHT22;64019;48.312;14.226;2023-02-07T09:00:19;-2.50;99.90
75442;DHT22;64019;48.312;14.226;2023-02-07T09:02:45;-2.50;99.90
75442;DHT22;64019;48.312;14.226;2023-02-07T09:05:10;-2.40;99.90
75442;DHT22;64019;48.312;14.226;2023-02-07T09:07:36;-2.40;99.90
75442;DHT22;64019;48.312;14.226;2023-02-07T09:10:03;-2.30;99.90
75442;DHT22;64019;48.312;14.226;2023-02-07T09:12:31;-2.30;99.90
75442;DHT22;64019;48.312;14.226;2023-02-07T09:14:57;-2.30;99.90
75442;DHT22;64019;48.312;14.226;2023-02-07T09:17:23;-2.20;99.90
75442;DHT22;64019;48.312;14.226;2023-02-07T09:19:49;-2.20;99.90
75442;DHT22;64019;48.312;14.226;2023-02-07T09:22:15;-2.10;99.90
75442;DHT22;64019;48.312;14.226;2023-02-07T09:24:40;-2.20;99.90
75442;DHT22;64019;48.312;14.226;2023-02-07T09:27:06;-2.10;99.90
75442;DHT22;64019;48.312;14.226;2023-02-07T09:29:32;-2.10;99.90
75442;DHT22;64019;48.312;14.226;2023-02-07T09:31:58;-2.10;99.90
75442;DHT22;64019;48.312;14.226;2023-02-07T09:34:24;-2.00;99.90
75442;DHT22;64019;48.312;14.226;2023-02-07T09:36:50;-2.00;99.90
75442;DHT22;64019;48.312;14.226;2023-02-07T09:39:16;-1.90;99.90
75442;DHT22;64019;48.312;14.226;2023-02-07T09:47:20;-1.70;99.90
75442;DHT22;64019;48.312;14.226;2023-02-07T09:52:49;-1.50;99.90
75442;DHT22;64019;48.312;14.226;2023-02-07T09:55:24;-1.50;99.90
75442;DHT22;64019;48.312;14.226;2023-02-07T09:57:56;-1.50;99.90
75442;DHT22;64019;48.312;14.226;2023-02-07T10:00:33;-1.50;99.90
75442;DHT22;64019;48.312;14.226;2023-02-07T10:03:23;-1.50;99.90
75442;DHT22;64019;48.312;14.226;2023-02-07T10:05:59;-1.40;99.90
75442;DHT22;64019;48.312;14.226;2023-02-07T10:08:26;-1.40;99.90
75442;DHT22;64019;48.312;14.226;2023-02-07T10:14:36;-1.30;99.90
75442;DHT22;64019;48.312;14.226;2023-02-07T10:19:44;-1.30;99.90
75442;DHT22;64019;48.312;14.226;2023-02-07T10:22:29;-1.30;99.90
75442;DHT22;64019;48.312;14.226;2023-02-07T10:30:48;-1.30;99.90
75442;DHT22;64019;48.312;14.226;2023-02-07T10:33:18;-1.20;99.90
75442;DHT22;64019;48.312;14.226;2023-02-07T10:35:45;-1.00;99.90
75442;DHT22;64019;48.312;14.226;2023-02-07T10:38:29;-1.00;99.90
75442;DHT22;64019;48.312;14.226;2023-02-07T10:41:18;-0.90;99.90
75442;DHT22;64019;48.312;14.226;2023-02-07T10:43:46;-0.80;99.90
75442;DHT22;64019;48.312;14.226;2023-02-07T10:46:14;-0.80;99.90
75442;DHT22;64019;48.312;14.226;2023-02-07T10:48:41;-0.80;99.90
75442;DHT22;64019;48.312;14.226;2023-02-07T10:54:10;-0.70;99.90
75442;DHT22;64019;48.312;14.226;2023-02-07T10:56:57;-0.70;99.90
75442;DHT22;64019;48.312;14.226;2023-02-07T10:59:38;-0.70;99.90
75442;DHT22;64019;48.312;14.226;2023-02-07T11:07:41;-0.60;99.90
75442;DHT22;64019;48.312;14.226;2023-02-07T11:10:25;-0.60;99.90
75442;DHT22;64019;48.312;14.226;2023-02-07T11:12:56;-0.50;99.90
75442;DHT22;64019;48.312;14.226;2023-02-07T11:15:55;-0.40;99.90
75442;DHT22;64019;48.312;14.226;2023-02-07T11:18:45;-0.40;99.90
75442;DHT22;64019;48.312;14.226;2023-02-07T11:21:25;-0.30;99.90
75442;DHT22;64019;48.312;14.226;2023-02-07T11:23:53;-0.20;99.90
75442;DHT22;64019;48.312;14.226;2023-02-07T11:26:22;-0.20;99.90
75442;DHT22;64019;48.312;14.226;2023-02-07T11:28:53;-0.20;99.90
75442;DHT22;64019;48.312;14.226;2023-02-07T11:31:25;-0.20;99.90
75442;DHT22;64019;48.312;14.226;2023-02-07T11:33:52;-0.20;99.90
75442;DHT22;64019;48.312;14.226;2023-02-07T11:36:22;-0.10;99.90
75442;DHT22;64019;48.312;14.226;2023-02-07T11:38:58;0.00;99.90
75442;DHT22;64019;48.312;14.226;2023-02-07T11:41:27;0.10;99.90
75442;DHT22;64019;48.312;14.226;2023-02-07T11:44:14;0.00;99.90
75442;DHT22;64019;48.312;14.226;2023-02-07T11:47:02;0.10;99.90
75442;DHT22;64019;48.312;14.226;2023-02-07T11:49:59;0.20;99.90
75442;DHT22;64019;48.312;14.226;2023-02-07T11:53:16;0.20;99.90
75442;DHT22;64019;48.312;14.226;2023-02-07T12:03:00;0.40;99.90
75442;DHT22;64019;48.312;14.226;2023-02-07T12:05:51;0.50;99.90
75442;DHT22;64019;48.312;14.226;2023-02-07T12:08:20;0.50;99.90
75442;DHT22;64019;48.312;14.226;2023-02-07T12:10:56;0.40;99.90
75442;DHT22;64019;48.312;14.226;2023-02-07T12:13:30;0.40;99.90
75442;DHT22;64019;48.312;14.226;2023-02-07T12:16:12;0.50;99.90
75442;DHT22;64019;48.312;14.226;2023-02-07T12:18:47;0.40;99.90
75442;DHT22;64019;48.312;14.226;2023-02-07T12:21:30;0.40;99.90
75442;DHT22;64019;48.312;14.226;2023-02-07T12:24:18;0.40;99.90
75442;DHT22;64019;48.312;14.226;2023-02-07T12:27:04;0.50;99.90
75442;DHT22;64019;48.312;14.226;2023-02-07T12:32:29;0.60;99.90
75442;DHT22;64019;48.312;14.226;2023-02-07T12:35:15;0.60;99.90
75442;DHT22;64019;48.312;14.226;2023-02-07T12:42:56;0.70;99.90
75442;DHT22;64019;48.312;14.226;2023-02-07T12:56:58;0.80;99.90
75442;DHT22;64019;48.312;14.226;2023-02-07T13:05:14;0.80;99.90
75442;DHT22;64019;48.312;14.226;2023-02-07T13:13:20;0.90;99.90
75442;DHT22;64019;48.312;14.226;2023-02-07T13:16:15;0.80;99.90
75442;DHT22;64019;48.312;14.226;2023-02-07T13:18:52;0.90;99.90
75442;DHT22;64019;48.312;14.226;2023-02-07T13:21:25;0.90;99.90
75442;DHT22;64019;48.312;14.226;2023-02-07T13:23:58;0.90;99.90
75442;DHT22;64019;48.312;14.226;2023-02-07T13:26:25;0.90;99.90
75442;DHT22;64019;48.312;14.226;2023-02-07T13:28:55;1.00;99.90
75442;DHT22;64019;48.312;14.226;2023-02-07T13:34:18;1.10;99.90
75442;DHT22;64019;48.312;14.226;2023-02-07T13:36:46;1.10;99.90
75442;DHT22;64019;48.312;14.226;2023-02-07T13:47:33;1.40;99.90
75442;DHT22;64019;48.312;14.226;2023-02-07T13:53:43;1.30;99.90
75442;DHT22;64019;48.312;14.226;2023-02-07T13:55:43;1.30;99.90
75442;DHT22;64019;48.312;14.226;2023-02-07T13:58:49;1.30;99.90
75442;DHT22;64019;48.312;14.226;2023-02-07T14:01:32;1.30;99.90
75442;DHT22;64019;48.312;14.226;2023-02-07T14:06:29;1.30;99.90
75442;DHT22;64019;48.312;14.226;2023-02-07T14:12:07;1.40;99.90
75442;DHT22;64019;48.312;14.226;2023-02-07T14:14:38;1.40;99.90
75442;DHT22;64019;48.312;14.226;2023-02-07T14:19:57;1.50;99.90
75442;DHT22;64019;48.312;14.226;2023-02-07T14:23:01;1.50;99.90
75442;DHT22;64019;48.312;14.226;2023-02-07T14:25:22;1.60;99.90
75442;DHT22;64019;48.312;14.226;2023-02-07T14:30:19;1.50;99.90
75442;DHT22;64019;48.312;14.226;2023-02-07T14:38:28;1.50;99.90
75442;DHT22;64019;48.312;14.226;2023-02-07T14:40:55;1.50;99.90
75442;DHT22;64019;48.312;14.226;2023-02-07T14:43:53;1.40;99.90
75442;DHT22;64019;48.312;14.226;2023-02-07T14:49:00;1.40;99.90
75442;DHT22;64019;48.312;14.226;2023-02-07T14:54:07;1.40;99.90
75442;DHT22;64019;48.312;14.226;2023-02-07T14:59:41;1.30;99.90
75442;DHT22;64019;48.312;14.226;2023-02-07T15:04:56;1.20;99.90
75442;DHT22;64019;48.312;14.226;2023-02-07T15:07:22;1.20;99.90
75442;DHT22;64019;48.312;14.226;2023-02-07T15:09:48;1.20;99.90
75442;DHT22;64019;48.312;14.226;2023-02-07T15:12:31;1.20;99.90
75442;DHT22;64019;48.312;14.226;2023-02-07T15:14:57;1.20;99.90
75442;DHT22;64019;48.312;14.226;2023-02-07T15:17:24;1.10;99.90
75442;DHT22;64019;48.312;14.226;2023-02-07T15:19:52;1.00;99.90
75442;DHT22;64019;48.312;14.226;2023-02-07T15:22:28;1.00;99.90
75442;DHT22;64019;48.312;14.226;2023-02-07T15:24:57;1.00;99.90
75442;DHT22;64019;48.312;14.226;2023-02-07T15:27:26;0.90;99.90
75442;DHT22;64019;48.312;14.226;2023-02-07T15:30:00;0.90;99.90
75442;DHT22;64019;48.312;14.226;2023-02-07T15:32:28;0.90;99.90
75442;DHT22;64019;48.312;14.226;2023-02-07T15:37:43;0.70;99.90
75442;DHT22;64019;48.312;14.226;2023-02-07T15:40:14;0.70;99.90
75442;DHT22;64019;48.312;14.226;2023-02-07T15:42:57;0.60;99.90
75442;DHT22;64019;48.312;14.226;2023-02-07T15:45:27;0.60;99.90
75442;DHT22;64019;48.312;14.226;2023-02-07T15:47:58;0.60;99.90
75442;DHT22;64019;48.312;14.226;2023-02-07T15:50:26;0.50;99.90
75442;DHT22;64019;48.312;14.226;2023-02-07T15:53:03;0.50;99.90
75442;DHT22;64019;48.312;14.226;2023-02-07T15:55:46;0.50;99.90
75442;DHT22;64019;48.312;14.226;2023-02-07T15:58:30;0.50;99.90
75442;DHT22;64019;48.312;14.226;2023-02-07T16:01:05;0.40;99.90
75442;DHT22;64019;48.312;14.226;2023-02-07T16:03:41;0.30;99.90
75442;DHT22;64019;48.312;14.226;2023-02-07T16:06:20;0.30;99.90
75442;DHT22;64019;48.312;14.226;2023-02-07T16:08:48;0.30;99.90
75442;DHT22;64019;48.312;14.226;2023-02-07T16:16:26;-0.10;99.90
75442;DHT22;64019;48.312;14.226;2023-02-07T16:19:29;-0.10;99.90
75442;DHT22;64019;48.312;14.226;2023-02-07T16:24:32;-0.30;99.90
75442;DHT22;64019;48.312;14.226;2023-02-07T16:26:59;-0.30;99.90
75442;DHT22;64019;48.312;14.226;2023-02-07T16:29:25;-0.40;99.90
75442;DHT22;64019;48.312;14.226;2023-02-07T16:31:51;-0.40;99.90
75442;DHT22;64019;48.312;14.226;2023-02-07T16:34:18;-0.50;99.90
75442;DHT22;64019;48.312;14.226;2023-02-07T16:36:50;-0.50;99.90
75442;DHT22;64019;48.312;14.226;2023-02-07T16:39:15;-0.50;99.90
75442;DHT22;64019;48.312;14.226;2023-02-07T16:41:55;-0.60;99.90
75442;DHT22;64019;48.312;14.226;2023-02-07T16:44:23;-0.60;99.90
75442;DHT22;64019;48.312;14.226;2023-02-07T16:46:49;-0.60;99.90
75442;DHT22;64019;48.312;14.226;2023-02-07T16:49:17;-0.70;99.90
75442;DHT22;64019;48.312;14.226;2023-02-07T16:51:44;-0.70;99.90
75442;DHT22;64019;48.312;14.226;2023-02-07T16:54:09;-0.80;99.90
75442;DHT22;64019;48.312;14.226;2023-02-07T16:56:35;-0.80;99.90
75442;DHT22;64019;48.312;14.226;2023-02-07T16:59:01;-0.90;99.90
75442;DHT22;64019;48.312;14.226;2023-02-07T17:01:28;-1.00;99.90
75442;DHT22;64019;48.312;14.226;2023-02-07T17:03:54;-1.00;99.90
75442;DHT22;64019;48.312;14.226;2023-02-07T17:06:22;-1.10;99.90
75442;DHT22;64019;48.312;14.226;2023-02-07T17:08:49;-1.10;99.90
75442;DHT22;64019;48.312;14.226;2023-02-07T17:11:20;-1.20;99.90
75442;DHT22;64019;48.312;14.226;2023-02-07T17:13:53;-1.20;99.90
75442;DHT22;64019;48.312;14.226;2023-02-07T17:16:19;-1.30;99.90
75442;DHT22;64019;48.312;14.226;2023-02-07T17:18:45;-1.30;99.90
75442;DHT22;64019;48.312;14.226;2023-02-07T17:21:11;-1.40;99.90
75442;DHT22;64019;48.312;14.226;2023-02-07T17:23:39;-1.40;99.90
75442;DHT22;64019;48.312;14.226;2023-02-07T17:26:08;-1.40;99.90
75442;DHT22;64019;48.312;14.226;2023-02-07T17:28:35;-1.40;99.90
75442;DHT22;64019;48.312;14.226;2023-02-07T17:31:01;-1.50;99.90
75442;DHT22;64019;48.312;14.226;2023-02-07T17:33:27;-1.50;99.90
75442;DHT22;64019;48.312;14.226;2023-02-07T17:35:52;-1.50;99.90
75442;DHT22;64019;48.312;14.226;2023-02-07T17:38:18;-1.60;99.90
75442;DHT22;64019;48.312;14.226;2023-02-07T17:40:44;-1.60;99.90
75442;DHT22;64019;48.312;14.226;2023-02-07T17:43:09;-1.60;99.90
75442;DHT22;64019;48.312;14.226;2023-02-07T17:45:36;-1.60;99.90
75442;DHT22;64019;48.312;14.226;2023-02-07T17:48:02;-1.80;99.90
75442;DHT22;64019;48.312;14.226;2023-02-07T17:50:37;-1.90;99.90
75442;DHT22;64019;48.312;14.226;2023-02-07T17:53:05;-1.90;99.90
75442;DHT22;64019;48.312;14.226;2023-02-07T17:55:32;-1.90;99.90
75442;DHT22;64019;48.312;14.226;2023-02-07T17:57:59;-1.90;99.90
75442;DHT22;64019;48.312;14.226;2023-02-07T18:00:30;-1.90;99.90
75442;DHT22;64019;48.312;14.226;2023-02-07T18:02:56;-1.90;99.90
75442;DHT22;64019;48.312;14.226;2023-02-07T18:05:22;-1.90;99.90
75442;DHT22;64019;48.312;14.226;2023-02-07T18:07:49;-1.90;99.90
75442;DHT22;64019;48.312;14.226;2023-02-07T18:10:22;-2.00;99.90
75442;DHT22;64019;48.312;14.226;2023-02-07T18:12:48;-2.00;99.90
75442;DHT22;64019;48.312;14.226;2023-02-07T18:15:14;-2.00;99.90
75442;DHT22;64019;48.312;14.226;2023-02-07T18:17:40;-2.10;99.90
75442;DHT22;64019;48.312;14.226;2023-02-07T18:20:17;-2.10;99.90
75442;DHT22;64019;48.312;14.226;2023-02-07T18:22:42;-2.20;99.90
75442;DHT22;64019;48.312;14.226;2023-02-07T18:25:08;-2.20;99.90
75442;DHT22;64019;48.312;14.226;2023-02-07T18:27:34;-2.20;99.90
75442;DHT22;64019;48.312;14.226;2023-02-07T18:30:01;-2.20;99.90
75442;DHT22;64019;48.312;14.226;2023-02-07T18:32:27;-2.30;99.90
75442;DHT22;64019;48.312;14.226;2023-02-07T18:34:52;-2.30;99.90
75442;DHT22;64019;48.312;14.226;2023-02-07T18:37:18;-2.40;99.90
75442;DHT22;64019;48.312;14.226;2023-02-07T18:39:46;-2.40;99.90
75442;DHT22;64019;48.312;14.226;2023-02-07T18:42:11;-2.40;99.90
75442;DHT22;64019;48.312;14.226;2023-02-07T18:44:40;-2.40;99.90
75442;DHT22;64019;48.312;14.226;2023-02-07T18:47:06;-2.40;99.90
75442;DHT22;64019;48.312;14.226;2023-02-07T18:49:33;-2.50;99.90
75442;DHT22;64019;48.312;14.226;2023-02-07T18:51:59;-2.50;99.90
75442;DHT22;64019;48.312;14.226;2023-02-07T18:54:25;-2.50;99.90
75442;DHT22;64019;48.312;14.226;2023-02-07T18:56:51;-2.50;99.90
75442;DHT22;64019;48.312;14.226;2023-02-07T18:59:23;-2.60;99.90
75442;DHT22;64019;48.312;14.226;2023-02-07T19:01:50;-2.50;99.90
75442;DHT22;64019;48.312;14.226;2023-02-07T19:04:19;-2.50;99.90
75442;DHT22;64019;48.312;14.226;2023-02-07T19:06:46;-2.50;99.90
75442;DHT22;64019;48.312;14.226;2023-02-07T19:09:14;-2.60;99.90
75442;DHT22;64019;48.312;14.226;2023-02-07T19:11:40;-2.60;99.90
75442;DHT22;64019;48.312;14.226;2023-02-07T19:14:17;-2.70;99.90
75442;DHT22;64019;48.312;14.226;2023-02-07T19:16:44;-2.70;99.90
75442;DHT22;64019;48.312;14.226;2023-02-07T19:19:11;-2.70;99.90
75442;DHT22;64019;48.312;14.226;2023-02-07T19:21:37;-2.80;99.90
75442;DHT22;64019;48.312;14.226;2023-02-07T19:24:05;-2.90;99.90
75442;DHT22;64019;48.312;14.226;2023-02-07T19:26:31;-2.90;99.90
75442;DHT22;64019;48.312;14.226;2023-02-07T19:28:57;-2.90;99.90
75442;DHT22;64019;48.312;14.226;2023-02-07T19:31:23;-2.90;99.90
75442;DHT22;64019;48.312;14.226;2023-02-07T19:33:53;-2.90;99.90
75442;DHT22;64019;48.312;14.226;2023-02-07T19:36:21;-2.90;99.90
75442;DHT22;64019;48.312;14.226;2023-02-07T19:38:48;-2.90;99.90
75442;DHT22;64019;48.312;14.226;2023-02-07T19:41:15;-2.80;99.90
75442;DHT22;64019;48.312;14.226;2023-02-07T19:43:40;-2.80;99.90
75442;DHT22;64019;48.312;14.226;2023-02-07T19:46:06;-2.80;99.90
75442;DHT22;64019;48.312;14.226;2023-02-07T19:48:32;-2.80;99.90
75442;DHT22;64019;48.312;14.226;2023-02-07T19:50:59;-2.90;99.90
75442;DHT22;64019;48.312;14.226;2023-02-07T19:53:26;-3.00;99.90
75442;DHT22;64019;48.312;14.226;2023-02-07T19:55:52;-3.00;99.90
75442;DHT22;64019;48.312;14.226;2023-02-07T19:58:20;-3.00;99.90
75442;DHT22;64019;48.312;14.226;2023-02-07T20:00:46;-3.00;99.90
75442;DHT22;64019;48.312;14.226;2023-02-07T20:03:12;-3.00;99.90
75442;DHT22;64019;48.312;14.226;2023-02-07T20:05:44;-3.10;99.90
75442;DHT22;64019;48.312;14.226;2023-02-07T20:08:11;-3.20;99.90
75442;DHT22;64019;48.312;14.226;2023-02-07T20:10:44;-3.30;99.90
75442;DHT22;64019;48.312;14.226;2023-02-07T20:13:11;-3.30;99.90
75442;DHT22;64019;48.312;14.226;2023-02-07T20:15:40;-3.40;99.90
75442;DHT22;64019;48.312;14.226;2023-02-07T20:18:08;-3.40;99.90
75442;DHT22;64019;48.312;14.226;2023-02-07T20:20:34;-3.40;99.90
75442;DHT22;64019;48.312;14.226;2023-02-07T20:22:59;-3.40;99.90
75442;DHT22;64019;48.312;14.226;2023-02-07T20:25:25;-3.40;99.90